createdAt,value
2022-11-16T00:02:02.195Z,5.91
2022-11-16T00:05:04.255Z,5.93
2022-11-16T00:08:06.042Z,5.90
2022-11-16T00:11:18.025Z,5.94
2022-11-16T00:14:21.449Z,5.93
2022-11-16T00:17:23.314Z,5.95
2022-11-16T00:20:25.137Z,5.91
2022-11-16T00:23:26.941Z,5.94
2022-11-16T00:26:29.105Z,5.91
2022-11-16T00:29:31.038Z,5.97
2022-11-16T00:32:33.513Z,5.95
2022-11-16T00:35:40.038Z,5.93
2022-11-16T00:38:42.557Z,5.96
2022-11-16T00:41:44.965Z,6.03
2022-11-16T00:44:46.754Z,6.03
2022-11-16T00:47:48.622Z,6.06
2022-11-16T00:50:50.484Z,6.02
2022-11-16T00:53:52.702Z,6.03
2022-11-16T00:56:55.095Z,6.02
2022-11-16T00:59:57.428Z,6.05
2022-11-16T01:02:59.474Z,6.02
2022-11-16T01:06:03.583Z,6.05
2022-11-16T01:09:05.890Z,6.04
2022-11-16T01:12:09.495Z,6.00
2022-11-16T01:15:13.086Z,5.96
2022-11-16T01:18:14.922Z,5.99
2022-11-16T01:21:17.462Z,6.02
2022-11-16T01:24:19.446Z,5.98
2022-11-16T01:27:21.327Z,6.01
2022-11-16T01:30:23.312Z,5.97
2022-11-16T01:33:36.855Z,5.92
2022-11-16T01:36:39.003Z,5.98
2022-11-16T01:39:40.817Z,5.89
2022-11-16T01:42:43.677Z,5.95
2022-11-16T01:45:46.563Z,5.99
2022-11-16T01:49:18.386Z,5.97
2022-11-16T01:52:25.269Z,5.93
2022-11-16T01:55:31.000Z,5.97
2022-11-16T01:58:55.546Z,6.00
2022-11-16T02:02:01.582Z,6.00
2022-11-16T02:05:06.033Z,6.00
2022-11-16T02:08:53.757Z,6.03
2022-11-16T02:12:06.824Z,6.02
2022-11-16T02:15:34.516Z,6.01
2022-11-16T02:19:12.138Z,5.98
2022-11-16T02:22:13.931Z,6.04
2022-11-16T02:25:35.006Z,6.00
2022-11-16T02:28:45.821Z,6.01
2022-11-16T02:32:02.990Z,6.02
2022-11-16T02:35:20.955Z,5.99
2022-11-16T02:38:29.687Z,6.03
2022-11-16T02:41:37.023Z,6.00
2022-11-16T02:44:43.795Z,6.02
2022-11-16T02:47:48.570Z,6.01
2022-11-16T02:50:53.476Z,6.00
2022-11-16T02:54:03.020Z,5.98
2022-11-16T02:57:06.015Z,6.02
2022-11-16T03:00:15.750Z,5.98
2022-11-16T03:03:42.079Z,5.98
2022-11-16T03:06:48.492Z,6.01
2022-11-16T03:09:51.997Z,6.05
2022-11-16T03:12:53.979Z,5.99
2022-11-16T03:15:56.397Z,5.99
2022-11-16T03:19:02.356Z,6.01
2022-11-16T03:22:37.603Z,6.03
2022-11-16T03:25:52.602Z,6.01
2022-11-16T03:29:13.947Z,6.07
2022-11-16T03:32:26.036Z,6.01
2022-11-16T03:35:45.776Z,5.98
2022-11-16T03:38:50.847Z,5.98
2022-11-16T03:41:54.066Z,5.98
2022-11-16T03:44:56.271Z,6.02
2022-11-16T03:48:00.677Z,6.05
2022-11-16T03:51:03.891Z,6.03
2022-11-16T03:54:07.699Z,5.99
2022-11-16T03:57:18.072Z,6.03
2022-11-16T04:00:24.974Z,5.98
2022-11-16T04:03:28.250Z,5.97
2022-11-16T04:06:48.876Z,5.99
2022-11-16T04:10:09.133Z,5.98
2022-11-16T04:13:31.701Z,6.00
2022-11-16T04:16:52.498Z,5.98
2022-11-16T04:20:14.509Z,5.99
2022-11-16T04:23:35.253Z,5.96
2022-11-16T04:26:57.829Z,5.98
2022-11-16T04:30:02.634Z,5.96
2022-11-16T04:33:25.177Z,5.98
2022-11-16T04:36:45.942Z,5.94
2022-11-16T04:39:47.911Z,5.96
2022-11-16T04:42:58.167Z,5.98
2022-11-16T04:46:19.689Z,6.05
2022-11-16T04:49:21.447Z,6.13
2022-11-16T04:52:23.277Z,6.12
2022-11-16T04:55:26.782Z,6.06
2022-11-16T04:58:28.669Z,6.03
2022-11-16T05:01:49.608Z,6.05
2022-11-16T05:04:51.690Z,5.99
2022-11-16T05:07:55.367Z,6.01
2022-11-16T05:11:01.964Z,6.07
2022-11-16T05:14:05.234Z,6.16
2022-11-16T05:17:08.341Z,6.21
2022-11-16T05:20:29.287Z,6.07
2022-11-16T05:23:54.977Z,6.10
2022-11-16T05:27:08.705Z,6.19
2022-11-16T05:30:11.941Z,6.26
2022-11-16T05:33:16.448Z,6.36
2022-11-16T05:36:19.131Z,6.43
2022-11-16T05:39:21.154Z,6.20
2022-11-16T05:43:04.719Z,6.19
2022-11-16T05:47:11.810Z,6.15
2022-11-16T05:51:13.438Z,6.14
2022-11-16T05:54:35.334Z,6.19
2022-11-16T05:57:38.428Z,6.25
2022-11-16T06:00:40.466Z,6.45
2022-11-16T06:03:44.747Z,6.46
2022-11-16T06:06:47.630Z,6.57
2022-11-16T06:09:49.631Z,6.50
2022-11-16T06:12:55.655Z,6.42
2022-11-16T06:15:59.055Z,6.36
2022-11-16T06:19:01.667Z,6.36
2022-11-16T06:22:03.978Z,6.34
2022-11-16T06:29:11.837Z,6.45
2022-11-16T06:32:14.641Z,6.54
2022-11-16T06:35:17.266Z,6.54
2022-11-16T06:38:20.195Z,6.51
2022-11-16T06:41:24.358Z,6.55
2022-11-16T06:44:26.462Z,6.68
2022-11-16T06:47:34.542Z,6.70
2022-11-16T06:50:36.520Z,6.82
2022-11-16T06:53:40.377Z,6.95
2022-11-16T06:56:43.787Z,6.97
2022-11-16T06:59:47.470Z,7.02
2022-11-16T07:02:51.321Z,6.94
2022-11-16T07:05:55.830Z,6.88
2022-11-16T07:08:59.370Z,6.86
2022-11-16T07:12:07.235Z,6.82
2022-11-16T07:15:12.946Z,6.90
2022-11-16T07:18:17.020Z,6.89
2022-11-16T07:21:19.525Z,6.97
2022-11-16T07:24:21.614Z,7.01
2022-11-16T07:27:24.349Z,7.00
2022-11-16T07:30:27.919Z,6.97
2022-11-16T07:33:40.828Z,6.97
2022-11-16T07:37:18.417Z,6.97
2022-11-16T07:40:21.468Z,7.06
2022-11-16T07:43:24.242Z,7.08
2022-11-16T07:46:47.064Z,7.03
2022-11-16T07:49:50.296Z,7.02
2022-11-16T07:52:56.418Z,6.94
2022-11-16T07:55:58.683Z,6.90
2022-11-16T07:59:03.474Z,6.90
2022-11-16T08:02:10.953Z,6.90
2022-11-16T08:05:15.227Z,6.95
2022-11-16T08:08:17.613Z,6.98
2022-11-16T08:11:20.750Z,7.00
2022-11-16T08:14:25.500Z,7.09
2022-11-16T08:17:30.842Z,7.24
2022-11-16T08:20:35.070Z,7.28
2022-11-16T08:23:37.625Z,7.15
2022-11-16T08:26:39.604Z,7.04
2022-11-16T08:29:46.458Z,7.13
2022-11-16T08:32:48.696Z,7.04
2022-11-16T08:35:53.139Z,6.96
2022-11-16T08:38:55.797Z,7.05
2022-11-16T08:41:59.694Z,7.26
2022-11-16T08:45:01.940Z,7.18
2022-11-16T08:48:05.660Z,7.16
2022-11-16T08:51:19.580Z,7.07
2022-11-16T08:54:28.913Z,7.10
2022-11-16T08:57:31.310Z,6.95
2022-11-16T09:00:38.249Z,7.01
2022-11-16T09:03:43.035Z,7.08
2022-11-16T09:06:45.815Z,7.14
2022-11-16T09:09:47.696Z,7.06
2022-11-16T09:12:50.220Z,7.06
2022-11-16T09:16:01.678Z,7.15
2022-11-16T09:19:03.671Z,7.03
2022-11-16T09:22:05.937Z,7.04
2022-11-16T09:25:09.445Z,6.98
2022-11-16T09:28:11.554Z,7.03
2022-11-16T09:31:16.550Z,7.06
2022-11-16T09:34:22.335Z,7.14
2022-11-16T09:37:24.410Z,7.23
2022-11-16T09:40:34.231Z,7.26
2022-11-16T09:43:55.540Z,7.15
2022-11-16T09:46:59.795Z,7.19
2022-11-16T09:50:05.345Z,7.24
2022-11-16T09:53:39.917Z,7.10
2022-11-16T09:56:44.473Z,7.11
2022-11-16T09:59:57.119Z,7.25
2022-11-16T10:03:02.781Z,7.22
2022-11-16T10:06:38.888Z,7.20
2022-11-16T10:09:41.081Z,7.29
2022-11-16T10:13:14.815Z,7.28
2022-11-16T10:16:32.063Z,7.28
2022-11-16T10:19:48.255Z,7.34
2022-11-16T10:22:50.422Z,7.41
2022-11-16T10:26:31.276Z,7.38
2022-11-16T10:29:55.831Z,7.42
2022-11-16T10:33:20.060Z,7.30
2022-11-16T10:36:27.482Z,7.29
2022-11-16T10:39:33.758Z,7.34
2022-11-16T10:42:39.309Z,7.40
2022-11-16T10:45:50.530Z,7.43
2022-11-16T10:49:01.160Z,7.47
2022-11-16T10:52:03.187Z,7.35
2022-11-16T10:55:05.718Z,7.36
2022-11-16T10:58:07.765Z,7.38
2022-11-16T11:01:12.669Z,7.42
2022-11-16T11:04:28.350Z,7.45
2022-11-16T11:07:33.206Z,7.55
2022-11-16T11:10:38.685Z,7.64
2022-11-16T11:13:40.580Z,7.50
2022-11-16T11:16:42.613Z,7.50
2022-11-16T11:19:45.279Z,7.46
2022-11-16T11:23:02.915Z,7.51
2022-11-16T11:26:05.327Z,7.60
2022-11-16T11:29:20.467Z,7.62
2022-11-16T11:32:26.848Z,7.55
2022-11-16T11:35:33.598Z,7.55
2022-11-16T11:39:03.277Z,7.60
2022-11-16T11:42:14.336Z,7.47
2022-11-16T11:45:17.966Z,7.45
2022-11-16T11:48:47.948Z,7.51
2022-11-16T11:51:51.802Z,7.34
2022-11-16T11:54:55.812Z,7.39
2022-11-16T11:58:00.474Z,7.48
2022-11-16T12:01:20.834Z,7.43
2022-11-16T12:04:48.402Z,7.50
2022-11-16T12:08:10.570Z,7.48
2022-11-16T12:11:24.485Z,7.48
2022-11-16T12:14:45.208Z,7.48
2022-11-16T12:18:05.148Z,7.50
2022-11-16T12:21:27.970Z,7.58
2022-11-16T12:24:35.539Z,7.61
2022-11-16T12:27:48.992Z,7.47
2022-11-16T12:31:06.789Z,7.59
2022-11-16T12:34:25.895Z,7.66
2022-11-16T12:37:52.282Z,7.72
2022-11-16T12:41:34.975Z,7.72
2022-11-16T12:44:39.467Z,7.72
2022-11-16T12:47:57.702Z,7.71
2022-11-16T12:51:50.347Z,7.65
2022-11-16T12:55:24.887Z,7.57
2022-11-16T12:58:31.022Z,7.57
2022-11-16T13:01:48.134Z,7.59
2022-11-16T13:04:55.050Z,7.51
2022-11-16T13:08:09.395Z,7.55
2022-11-16T13:11:20.598Z,7.58
2022-11-16T13:14:35.048Z,7.60
2022-11-16T13:17:38.841Z,7.60
2022-11-16T13:20:43.829Z,7.58
2022-11-16T13:24:23.866Z,7.61
2022-11-16T13:27:37.654Z,7.66
2022-11-16T13:31:16.663Z,7.65
2022-11-16T13:34:34.094Z,7.64
2022-11-16T13:37:38.429Z,7.61
2022-11-16T13:40:41.186Z,7.55
2022-11-16T13:43:49.449Z,7.55
2022-11-16T13:47:03.661Z,7.56
2022-11-16T13:50:16.916Z,7.54
2022-11-16T13:54:25.071Z,7.55
2022-11-16T13:56:53.027Z,7.60
2022-11-16T14:00:01.474Z,7.61
2022-11-16T14:03:11.782Z,7.59
2022-11-16T14:06:13.499Z,7.58
2022-11-16T14:09:43.248Z,7.56
2022-11-16T14:12:52.170Z,7.59
2022-11-16T14:16:19.848Z,7.54
2022-11-16T14:19:47.281Z,7.51
2022-11-16T14:23:16.371Z,7.49
2022-11-16T14:26:39.099Z,7.46
2022-11-16T14:30:02.143Z,7.39
2022-11-16T14:33:04.169Z,7.39
2022-11-16T14:36:10.744Z,7.42
2022-11-16T14:39:21.844Z,7.41
2022-11-16T14:42:27.211Z,7.40
2022-11-16T14:45:32.040Z,7.40
2022-11-16T14:49:16.701Z,7.43
2022-11-16T14:53:18.285Z,7.43
2022-11-16T14:57:05.245Z,7.38
2022-11-16T15:00:30.188Z,7.30
2022-11-16T15:03:37.056Z,7.35
2022-11-16T15:06:44.867Z,7.36
2022-11-16T15:09:52.870Z,7.34
2022-11-16T15:12:56.835Z,7.37
2022-11-16T15:16:19.940Z,7.40
2022-11-16T15:19:22.456Z,7.38
2022-11-16T15:22:27.076Z,7.41
2022-11-16T15:25:37.998Z,7.41
2022-11-16T15:28:40.167Z,7.40
2022-11-16T15:31:42.251Z,7.38
2022-11-16T15:34:50.959Z,7.37
2022-11-16T15:38:20.454Z,7.37
2022-11-16T15:41:24.398Z,7.37
2022-11-16T15:44:26.883Z,7.38
2022-11-16T15:47:28.820Z,7.40
2022-11-16T15:50:31.309Z,7.40
2022-11-16T15:53:34.494Z,7.37
2022-11-16T15:56:36.784Z,7.36
2022-11-16T15:59:38.729Z,7.29
2022-11-16T20:29:28.154Z,7.51
2022-11-16T20:32:30.410Z,7.51
2022-11-16T20:35:33.195Z,7.50
2022-11-16T20:38:36.540Z,7.50
2022-11-16T20:41:38.554Z,7.52
2022-11-16T20:44:40.754Z,7.49
2022-11-16T20:47:43.240Z,7.46
2022-11-16T20:50:45.678Z,7.46
2022-11-16T20:53:49.488Z,7.44
2022-11-16T20:56:51.594Z,7.46
2022-11-16T20:59:53.400Z,7.52
2022-11-16T21:02:55.456Z,7.55
2022-11-16T21:05:57.578Z,7.58
2022-11-16T21:09:00.119Z,7.54
2022-11-16T21:12:20.202Z,7.49
2022-11-16T21:15:22.246Z,7.51
2022-11-16T21:18:30.335Z,7.55
2022-11-16T21:21:33.527Z,7.55
2022-11-16T21:24:35.312Z,7.57
2022-11-16T21:27:37.133Z,7.56
2022-11-16T21:30:39.175Z,7.60
2022-11-16T21:33:41.555Z,7.58
2022-11-16T21:36:43.404Z,7.65
2022-11-16T21:39:45.338Z,7.64
2022-11-16T21:42:47.741Z,7.52
2022-11-16T21:45:49.690Z,7.48
2022-11-16T21:48:52.855Z,7.55
2022-11-16T21:51:54.692Z,7.46
2022-11-16T21:54:59.361Z,7.47
2022-11-16T21:58:03.590Z,7.50
2022-11-16T22:01:06.085Z,7.55
2022-11-16T22:04:26.800Z,7.51
2022-11-16T22:07:36.663Z,7.41
2022-11-16T22:10:41.274Z,7.45
2022-11-16T22:13:43.938Z,7.52
2022-11-16T22:16:45.746Z,7.57
2022-11-16T22:19:48.363Z,7.55
2022-11-16T22:22:50.224Z,7.46
2022-11-16T22:25:52.461Z,7.40
2022-11-16T22:28:54.687Z,7.45
2022-11-16T22:31:56.529Z,7.47
2022-11-16T22:34:58.273Z,7.52
2022-11-16T22:38:02.351Z,7.48
2022-11-16T22:41:04.265Z,7.57
2022-11-16T22:44:06.182Z,7.47
2022-11-16T22:47:09.497Z,7.53
2022-11-16T22:50:11.746Z,7.43
2022-11-16T22:53:14.695Z,7.51
2022-11-16T22:56:16.501Z,7.55
2022-11-16T22:59:18.318Z,7.53
2022-11-16T23:02:20.191Z,7.56
2022-11-16T23:05:22.113Z,7.43
2022-11-16T23:08:25.341Z,7.37
2022-11-16T23:11:45.878Z,7.39
2022-11-16T23:15:19.894Z,7.41
2022-11-16T23:18:21.683Z,7.46
2022-11-16T23:21:42.899Z,7.37
2022-11-16T23:25:03.878Z,7.42
2022-11-16T23:28:08.023Z,7.36
2022-11-16T23:31:09.892Z,7.44
2022-11-16T23:34:11.665Z,7.33
2022-11-16T23:37:13.643Z,7.44
2022-11-16T23:40:16.211Z,7.34
2022-11-16T23:43:36.654Z,7.32
2022-11-16T23:46:38.723Z,7.31
2022-11-16T23:49:40.699Z,7.30
2022-11-16T23:52:42.558Z,7.28
2022-11-16T23:55:44.479Z,7.21
2022-11-16T23:58:46.554Z,7.25
